首页
METAR-TAF:

METAR-TAF

机场 :

蘇庫爾, 巴基斯坦

纬度: 27-43-19N, 经度: 068-47-31E, 海拔: 60米

当前天气观测

该预报发布于36分钟前的21:00 UTC
静风
温度 11°C
湿度 71%
气压 1017 hPa
能見度: 3000

METAR: OPSK 292100Z 00000KT 3000 HZ NSC 11/06 Q1017 NOSIG

时间: 02:36 (21:36 UTC)

预报

该预报发布于6小时和6分钟前的15:30 UTC
预报有效从29日的 18点(UTC)到 30日的 18点(UTC)
风速5节,风向北转东北
能見度: 2000
短暂存在
从 30日的 01点(UTC)到 30日的 05点(UTC)
风速3节,风向多变
能見度: 1000
散云层高于3000英尺
轻雾
从 30日的 0700点(UTC)
风速8节,风向东北
能見度: 4000

TAF: OPSK 291530Z 2918/3018 03005KT 2000 FU TEMPO 3001/3005 VRB03KT 1000 BR SCT030 FM300700 05008KT 4000 HZ NSC

超过4000个机场的气象观测和天气预报(METAR&TAF报告)。

可查询的气象台以黄色和红色小点在地图上表示。

将鼠标移到小点上方,可查看气象台名称。

然后点击查看天气观测和预报。

如需切换地图:点击带黑十字的绿色按钮放大地图;点击带横线的绿色按钮缩小地图;或者点击绿色箭头查看邻近地区的地图。


METAR-TAF: